createdAt,value
2022-08-05T00:02:11.618Z,99730.94
2022-08-05T00:04:40.263Z,99737.84
2022-08-05T00:07:26.753Z,99737.16
2022-08-05T00:09:54.630Z,99732.34
2022-08-05T00:12:21.626Z,99736.59
2022-08-05T00:14:51.752Z,99738.63
2022-08-05T00:17:19.548Z,99735.44
2022-08-05T00:20:02.026Z,99736.97
2022-08-05T00:22:31.045Z,99731.34
2022-08-05T00:24:57.911Z,99738.34
2022-08-05T00:27:36.461Z,99737.13
2022-08-05T00:30:04.711Z,99732.00
2022-08-05T00:32:31.582Z,99738.19
2022-08-05T00:35:06.862Z,99738.78
2022-08-05T00:37:51.057Z,99736.84
2022-08-05T00:40:27.467Z,99734.09
2022-08-05T00:42:59.598Z,99728.34
2022-08-05T00:45:38.822Z,99738.47
2022-08-05T00:48:13.285Z,99733.81
2022-08-05T00:50:41.902Z,99737.91
2022-08-05T00:54:00.362Z,99734.22
2022-08-05T00:55:57.971Z,99736.06
2022-08-05T00:58:27.485Z,99727.56
2022-08-05T01:00:54.631Z,99736.31
2022-08-05T01:03:22.498Z,99731.03
2022-08-05T01:05:51.220Z,99732.63
2022-08-05T01:08:41.598Z,99732.63
2022-08-05T01:11:13.642Z,99726.34
2022-08-05T01:13:58.471Z,99725.53
2022-08-05T01:16:34.995Z,99699.94
2022-08-05T01:19:07.255Z,99721.88
2022-08-05T01:21:51.753Z,99727.56
2022-08-05T01:24:20.704Z,99724.31
2022-08-05T01:27:24.334Z,99731.22
2022-08-05T01:29:53.202Z,99730.72
2022-08-05T01:32:22.945Z,99732.63
2022-08-05T01:34:57.694Z,99731.03
2022-08-05T01:37:27.344Z,99727.22
2022-08-05T01:39:58.709Z,99726.75
2022-08-05T01:42:26.988Z,99728.16
2022-08-05T01:44:54.841Z,99739.44
2022-08-05T01:47:22.279Z,99732.59
2022-08-05T01:50:01.721Z,99734.84
2022-08-05T01:52:30.899Z,99727.41
2022-08-05T01:55:00.493Z,99737.81
2022-08-05T01:58:13.738Z,99734.22
2022-08-05T02:00:30.644Z,99737.91
2022-08-05T02:02:58.487Z,99730.75
2022-08-05T02:05:25.815Z,99729.13
2022-08-05T02:07:59.976Z,99740.13
2022-08-05T02:10:29.734Z,99735.66
2022-08-05T02:13:19.467Z,99733.13
2022-08-05T02:15:54.521Z,99739.72
2022-08-05T02:21:13.275Z,99746.53
2022-08-05T02:23:43.099Z,99747.69
2022-08-05T02:26:10.536Z,99745.44
2022-08-05T02:28:41.682Z,99748.28
2022-08-05T02:31:21.133Z,99750.72
2022-08-05T02:33:57.712Z,99753.47
2022-08-05T02:36:27.936Z,99753.97
2022-08-05T02:38:58.886Z,99754.22
2022-08-05T02:41:28.969Z,99758.78
2022-08-05T02:44:11.163Z,99766.44
2022-08-05T02:46:58.360Z,99765.13
2022-08-05T02:49:36.179Z,99764.59
2022-08-05T02:52:06.210Z,99764.59
2022-08-05T02:54:37.251Z,99764.59
2022-08-05T02:57:10.124Z,99770.00
2022-08-05T02:59:58.102Z,99768.06
2022-08-05T03:02:30.778Z,99765.59
2022-08-05T03:04:58.079Z,99774.69
2022-08-05T03:08:01.930Z,99781.81
2022-08-05T03:10:24.387Z,99782.53
2022-08-05T03:12:52.711Z,99781.50
2022-08-05T03:15:19.571Z,99787.50
2022-08-05T03:17:46.342Z,99779.47
2022-08-05T03:20:13.724Z,99783.84
2022-08-05T03:22:46.927Z,99789.06
2022-08-05T03:26:03.741Z,99791.19
2022-08-05T03:28:06.367Z,99791.19
2022-08-05T03:30:44.409Z,99790.09
2022-08-05T03:33:14.068Z,99796.09
2022-08-05T03:35:41.997Z,99798.84
2022-08-05T03:38:12.395Z,99798.84
2022-08-05T03:40:47.515Z,99803.75
2022-08-05T03:44:09.871Z,99800.69
2022-08-05T03:46:04.389Z,99802.53
2022-08-05T03:48:35.602Z,99814.34
2022-08-05T03:52:38.611Z,99813.53
2022-08-05T03:55:51.690Z,99812.31
2022-08-05T03:56:58.966Z,99815.56
2022-08-05T03:59:47.065Z,99821.59
2022-08-05T04:02:37.677Z,99815.22
2022-08-05T04:05:09.694Z,99818.78
2022-08-05T04:07:57.165Z,99813.81
2022-08-05T04:10:24.804Z,99823.69
2022-08-05T04:12:55.200Z,99814.81
2022-08-05T04:15:24.549Z,99824.19
2022-08-05T04:17:56.601Z,99828.06
2022-08-05T04:20:24.389Z,99832.34
2022-08-05T04:22:51.144Z,99833.38
2022-08-05T04:25:18.228Z,99833.06
2022-08-05T04:27:58.115Z,99832.16
2022-08-05T04:30:26.695Z,99833.19
2022-08-05T04:32:53.643Z,99827.91
2022-08-05T04:35:20.420Z,99830.66
2022-08-05T04:38:02.438Z,99827.59
2022-08-05T04:40:34.980Z,99831.59
2022-08-05T04:43:02.276Z,99833.53
2022-08-05T04:45:47.812Z,99830.78
2022-08-05T04:48:27.973Z,99835.16
2022-08-05T04:51:02.716Z,99834.44
2022-08-05T04:53:38.759Z,99825.97
2022-08-05T04:56:34.017Z,99837.63
2022-08-05T04:58:55.892Z,99834.44
2022-08-05T05:01:33.842Z,99830.38
2022-08-05T05:04:10.247Z,99829.34
2022-08-05T05:06:44.892Z,99829.72
2022-08-05T05:09:18.993Z,99825.84
2022-08-05T05:11:54.306Z,99837.94
2022-08-05T05:14:31.217Z,99846.78
2022-08-05T05:17:01.730Z,99844.19
2022-08-05T05:19:37.126Z,99838.66
2022-08-05T05:22:23.653Z,99836.69
2022-08-05T05:24:58.091Z,99837.75
2022-08-05T05:27:41.245Z,99826.44
2022-08-05T05:30:15.701Z,99829.47
2022-08-05T05:33:00.986Z,99831.84
2022-08-05T05:35:34.307Z,99834.16
2022-08-05T05:38:08.908Z,99831.31
2022-08-05T05:40:36.454Z,99826.53
2022-08-05T05:43:03.267Z,99834.91
2022-08-05T05:45:30.181Z,99837.88
2022-08-05T05:48:06.424Z,99832.72
2022-08-05T05:50:41.252Z,99833.22
2022-08-05T05:53:21.424Z,99836.69
2022-08-05T05:55:52.294Z,99842.56
2022-08-05T05:58:30.209Z,99838.19
2022-08-05T06:01:12.237Z,99834.91
2022-08-05T06:04:00.647Z,99842.91
2022-08-05T06:06:31.067Z,99840.00
2022-08-05T06:09:03.949Z,99832.53
2022-08-05T06:11:31.809Z,99846.66
2022-08-05T06:14:00.367Z,99845.50
2022-08-05T06:16:36.942Z,99841.44
2022-08-05T06:21:49.719Z,99844.69
2022-08-05T06:24:17.679Z,99841.91
2022-08-05T06:26:56.325Z,99839.50
2022-08-05T06:29:48.914Z,99845.19
2022-08-05T06:32:21.419Z,99848.56
2022-08-05T06:34:53.563Z,99844.66
2022-08-05T06:37:58.326Z,99851.47
2022-08-05T06:40:10.718Z,99852.41
2022-08-05T06:42:39.756Z,99848.03
2022-08-05T06:45:08.847Z,99850.38
2022-08-05T06:48:47.377Z,99839.41
2022-08-05T06:50:23.840Z,99857.00
2022-08-05T06:53:03.521Z,99847.34
2022-08-05T06:55:37.611Z,99853.47
2022-08-05T06:58:30.203Z,99857.25
2022-08-05T07:00:51.798Z,99860.63
2022-08-05T07:03:18.728Z,99851.03
2022-08-05T07:05:46.217Z,99845.34
2022-08-05T07:08:16.477Z,99861.31
2022-08-05T07:10:52.271Z,99856.44
2022-08-05T07:13:57.897Z,99856.34
2022-08-05T07:18:02.206Z,99852.19
2022-08-05T07:20:29.834Z,99850.16
2022-08-05T07:22:22.157Z,99849.06
2022-08-05T07:24:56.693Z,99851.44
2022-08-05T07:27:27.684Z,99852.25
2022-08-05T07:30:24.621Z,99854.66
2022-08-05T07:32:57.536Z,99858.88
2022-08-05T07:35:56.019Z,99846.25
2022-08-05T07:38:12.417Z,99848.34
2022-08-05T07:40:55.659Z,99849.56
2022-08-05T07:43:28.611Z,99852.38
2022-08-05T07:45:58.989Z,99844.28
2022-08-05T07:49:02.475Z,99844.03
2022-08-05T07:51:36.038Z,99839.69
2022-08-05T07:54:05.257Z,99839.63
2022-08-05T07:57:02.611Z,99840.56
2022-08-05T07:59:23.239Z,99837.72
2022-08-05T08:01:58.541Z,99842.41
2022-08-05T08:04:37.911Z,99844.59
2022-08-05T08:07:07.551Z,99849.81
2022-08-05T08:09:37.507Z,99838.28
2022-08-05T08:12:14.318Z,99839.91
2022-08-05T08:14:47.114Z,99829.38
2022-08-05T08:17:16.001Z,99836.31
2022-08-05T08:20:21.548Z,99834.31
2022-08-05T08:22:31.010Z,99833.78
2022-08-05T08:25:03.270Z,99835.56
2022-08-05T08:27:40.429Z,99840.22
2022-08-05T08:30:29.976Z,99839.03
2022-08-05T08:33:04.605Z,99841.00
2022-08-05T08:35:41.472Z,99841.88
2022-08-05T08:38:35.913Z,99835.81
2022-08-05T08:41:05.642Z,99833.50
2022-08-05T08:45:24.099Z,99834.78
2022-08-05T08:46:21.061Z,99841.69
2022-08-05T08:49:06.229Z,99832.44
2022-08-05T08:52:02.850Z,99830.09
2022-08-05T08:54:27.247Z,99837.22
2022-08-05T08:56:56.564Z,99827.44
2022-08-05T08:59:27.752Z,99835.09
2022-08-05T09:02:05.970Z,99833.22
2022-08-05T09:04:58.178Z,99823.19
2022-08-05T09:07:28.845Z,99820.13
2022-08-05T09:09:56.549Z,99828.66
2022-08-05T09:12:27.755Z,99821.22
2022-08-05T09:15:03.968Z,99824.72
2022-08-05T09:17:41.417Z,99821.84
2022-08-05T09:20:10.685Z,99817.09
2022-08-05T09:22:56.261Z,99825.50
2022-08-05T09:26:01.831Z,99822.13
2022-08-05T09:28:31.503Z,99819.97
2022-08-05T09:31:43.286Z,99812.50
2022-08-05T09:33:53.263Z,99810.66
2022-08-05T09:36:20.512Z,99796.53
2022-08-05T09:38:56.568Z,99803.03
2022-08-05T09:41:24.101Z,99801.69
2022-08-05T09:43:55.991Z,99794.63
2022-08-05T09:46:28.944Z,99803.34
2022-08-05T09:49:07.532Z,99799.66
2022-08-05T09:51:49.418Z,99797.69
2022-08-05T09:54:30.108Z,99800.06
2022-08-05T09:57:01.590Z,99798.97
2022-08-05T09:59:29.128Z,99797.81
2022-08-05T10:02:04.091Z,99795.84
2022-08-05T10:04:42.328Z,99794.25
2022-08-05T10:07:20.213Z,99800.66
2022-08-05T10:10:14.362Z,99791.00
2022-08-05T10:12:54.562Z,99791.00
2022-08-05T10:15:23.610Z,99796.53
2022-08-05T10:18:11.893Z,99795.81
2022-08-05T10:20:43.018Z,99795.03
2022-08-05T10:23:34.353Z,99800.63
2022-08-05T10:26:14.225Z,99797.41
2022-08-05T10:28:42.922Z,99790.94
2022-08-05T10:32:54.909Z,99796.38
2022-08-05T10:33:58.046Z,99789.69
2022-08-05T10:36:26.044Z,99788.59
2022-08-05T10:38:55.704Z,99775.88
2022-08-05T10:41:27.552Z,99792.81
2022-08-05T10:44:13.186Z,99776.66
2022-08-05T10:46:43.867Z,99784.84
2022-08-05T10:49:16.634Z,99781.84
2022-08-05T10:52:00.468Z,99784.53
2022-08-05T10:54:47.111Z,99777.31
2022-08-05T10:57:32.348Z,99774.88
2022-08-05T11:00:19.573Z,99779.66
2022-08-05T11:03:23.284Z,99779.13
2022-08-05T11:06:03.809Z,99771.50
2022-08-05T11:08:39.125Z,99776.25
2022-08-05T11:11:52.935Z,99777.78
2022-08-05T11:15:01.128Z,99776.47
2022-08-05T11:17:59.689Z,99777.19
2022-08-05T11:20:34.687Z,99774.53
2022-08-05T11:23:10.564Z,99769.34
2022-08-05T11:26:05.630Z,99779.78
2022-08-05T11:28:28.335Z,99773.84
2022-08-05T11:30:58.770Z,99774.88
2022-08-05T11:33:43.965Z,99767.28
2022-08-05T11:36:14.808Z,99757.81
2022-08-05T11:38:45.915Z,99756.47
2022-08-05T11:41:56.546Z,99757.84
2022-08-05T11:44:08.335Z,99760.09
2022-08-05T11:46:35.557Z,99764.44
2022-08-05T11:49:03.431Z,99765.28
2022-08-05T11:51:49.619Z,99752.56
2022-08-05T11:54:33.537Z,99752.59
2022-08-05T11:57:07.893Z,99748.97
2022-08-05T11:59:50.679Z,99746.63
2022-08-05T12:02:23.889Z,99753.50
2022-08-05T12:04:59.870Z,99757.44
2022-08-05T12:08:09.216Z,99754.84
2022-08-05T12:10:17.011Z,99747.13
2022-08-05T12:12:58.265Z,99744.44
2022-08-05T12:15:33.278Z,99743.75
2022-08-05T12:18:10.697Z,99743.47
2022-08-05T12:20:39.049Z,99742.91
2022-08-05T12:23:09.990Z,99742.06
2022-08-05T12:25:57.292Z,99733.69
2022-08-05T12:28:42.385Z,99739.00
2022-08-05T12:31:23.107Z,99732.75
2022-08-05T12:33:50.798Z,99734.53
2022-08-05T12:36:30.729Z,99731.50
2022-08-05T12:39:01.268Z,99724.66
2022-08-05T12:41:34.731Z,99728.09
2022-08-05T12:44:02.552Z,99723.34
2022-08-05T12:46:31.166Z,99726.28
2022-08-05T12:49:01.661Z,99719.75
2022-08-05T12:52:14.032Z,99717.09
2022-08-05T12:54:35.730Z,99717.75
2022-08-05T12:57:10.866Z,99716.38
2022-08-05T13:01:56.797Z,99717.72
2022-08-05T13:02:35.704Z,99715.88
2022-08-05T13:05:06.058Z,99706.41
2022-08-05T13:07:59.042Z,99710.69
2022-08-05T13:10:20.555Z,99711.84
2022-08-05T13:12:57.432Z,99701.81
2022-08-05T13:15:41.736Z,99701.47
2022-08-05T13:18:20.788Z,99712.88
2022-08-05T13:20:49.270Z,99697.91
2022-08-05T13:23:18.289Z,99705.81
2022-08-05T13:25:51.997Z,99694.38
2022-08-05T13:28:28.285Z,99694.28
2022-08-05T13:30:55.632Z,99690.94
2022-08-05T13:34:22.287Z,99688.25
2022-08-05T13:36:14.408Z,99686.16
2022-08-05T13:38:42.241Z,99688.63
2022-08-05T13:41:11.738Z,99695.69
2022-08-05T13:43:45.341Z,99689.09
2022-08-05T13:46:44.002Z,99684.38
2022-08-05T13:49:11.776Z,99687.09
2022-08-05T13:51:40.986Z,99683.25
2022-08-05T13:54:15.025Z,99685.66
2022-08-05T13:56:51.575Z,99673.34
2022-08-05T13:59:21.131Z,99682.72
2022-08-05T14:01:58.360Z,99677.69
2022-08-05T14:04:51.589Z,99679.75
2022-08-05T14:07:25.398Z,99681.00
2022-08-05T14:10:08.358Z,99677.91
2022-08-05T14:12:35.546Z,99676.59
2022-08-05T14:16:05.913Z,99676.13
2022-08-05T14:17:49.946Z,99676.03
2022-08-05T14:20:18.388Z,99667.75
2022-08-05T14:22:50.116Z,99670.50
2022-08-05T14:28:26.216Z,99662.22
2022-08-05T14:30:57.118Z,99654.34
2022-08-05T14:33:24.459Z,99656.88
2022-08-05T14:35:53.929Z,99662.44
2022-08-05T14:38:32.146Z,99659.13
2022-08-05T14:41:05.585Z,99652.31
2022-08-05T14:44:02.059Z,99660.19
2022-08-05T14:49:09.667Z,99655.22
2022-08-05T14:54:28.368Z,99648.38
2022-08-05T14:56:57.410Z,99636.66
2022-08-05T14:59:25.473Z,99648.13
2022-08-05T15:01:56.871Z,99649.06
2022-08-05T15:04:27.466Z,99651.47
2022-08-05T15:06:56.482Z,99654.56
2022-08-05T15:09:54.043Z,99648.84
2022-08-05T15:12:16.897Z,99651.66
2022-08-05T15:17:47.271Z,99658.88
2022-08-05T15:20:19.393Z,99646.59
2022-08-05T15:22:54.378Z,99645.50
2022-08-05T15:25:23.547Z,99651.59
2022-08-05T15:28:08.592Z,99651.03
2022-08-05T15:30:40.466Z,99645.63
2022-08-05T15:33:07.362Z,99645.13
2022-08-05T15:35:36.170Z,99654.41
2022-08-05T15:38:35.980Z,99651.66
2022-08-05T15:41:22.491Z,99652.44
2022-08-05T15:43:47.072Z,99643.19
2022-08-05T15:46:14.271Z,99644.50
2022-08-05T15:48:52.739Z,99642.09
2022-08-05T15:52:09.933Z,99642.09
2022-08-05T15:54:16.167Z,99647.97
2022-08-05T15:56:43.531Z,99650.38
2022-08-05T15:59:22.244Z,99652.97
2022-08-05T16:01:52.796Z,99645.28
2022-08-05T16:04:21.029Z,99657.75
2022-08-05T16:06:54.245Z,99650.88
2022-08-05T16:09:23.085Z,99656.72
2022-08-05T16:11:53.034Z,99673.00
2022-08-05T16:14:21.272Z,99651.19
2022-08-05T16:16:49.343Z,99661.84
2022-08-05T16:20:03.441Z,99666.22
2022-08-05T16:22:06.698Z,99662.38
2022-08-05T16:24:40.461Z,99667.84
2022-08-05T16:27:09.563Z,99664.47
2022-08-05T16:29:37.299Z,99664.38
2022-08-05T16:32:09.499Z,99667.41
2022-08-05T16:34:42.601Z,99670.22
2022-08-05T16:38:03.418Z,99679.19
2022-08-05T16:40:04.584Z,99669.97
2022-08-05T16:42:34.536Z,99663.19
2022-08-05T16:46:02.900Z,99665.84
2022-08-05T16:47:53.367Z,99666.78
2022-08-05T16:50:25.551Z,99675.56
2022-08-05T16:52:52.746Z,99672.34
2022-08-05T16:55:23.277Z,99673.03
2022-08-05T16:57:53.602Z,99681.22
2022-08-05T17:00:34.851Z,99681.34
2022-08-05T17:03:15.450Z,99684.09
2022-08-05T17:05:51.854Z,99683.72
2022-08-05T17:08:35.728Z,99693.28
2022-08-05T17:11:16.659Z,99692.75
2022-08-05T17:13:44.704Z,99695.16
2022-08-05T17:16:33.105Z,99689.22
2022-08-05T17:18:58.992Z,99692.59
2022-08-05T17:21:35.655Z,99690.88
2022-08-05T17:24:30.248Z,99693.41
2022-08-05T17:26:57.599Z,99691.16
2022-08-05T17:29:33.989Z,99698.88
2022-08-05T17:32:11.466Z,99702.69
2022-08-05T17:34:47.759Z,99699.03
2022-08-05T17:37:27.268Z,99697.28
2022-08-05T17:40:04.057Z,99698.16
2022-08-05T17:42:32.412Z,99696.22
2022-08-05T17:45:17.669Z,99694.78
2022-08-05T17:47:52.918Z,99695.97
2022-08-05T17:50:28.340Z,99688.84
2022-08-05T17:53:01.605Z,99692.06
2022-08-05T17:55:37.336Z,99698.88
2022-08-05T17:58:06.934Z,99697.25
2022-08-05T18:00:36.263Z,99704.88
2022-08-05T18:03:11.399Z,99702.25
2022-08-05T18:05:39.265Z,99700.78
2022-08-05T18:08:06.226Z,99697.16
2022-08-05T18:10:33.817Z,99701.38
2022-08-05T18:13:07.717Z,99699.44
2022-08-05T18:15:39.829Z,99702.53
2022-08-05T18:18:11.126Z,99700.44
2022-08-05T18:20:39.155Z,99708.22
2022-08-05T18:23:09.029Z,99701.25
2022-08-05T18:25:39.730Z,99709.06
2022-08-05T18:28:16.258Z,99712.78
2022-08-05T18:30:50.925Z,99713.06
2022-08-05T18:33:24.049Z,99718.84
2022-08-05T18:36:03.570Z,99717.84
2022-08-05T18:38:36.345Z,99719.72
2022-08-05T18:41:57.704Z,99711.88
2022-08-05T18:43:56.543Z,99726.69
2022-08-05T18:46:25.934Z,99718.69
2022-08-05T18:48:56.035Z,99720.75
2022-08-05T18:52:04.189Z,99715.16
2022-08-05T18:54:41.295Z,99710.41
2022-08-05T18:57:15.285Z,99714.84
2022-08-05T19:00:02.353Z,99709.59
2022-08-05T19:02:33.482Z,99708.19
2022-08-05T19:06:05.512Z,99716.91
2022-08-05T19:07:50.731Z,99720.06
2022-08-05T19:10:17.901Z,99721.50
2022-08-05T19:12:46.204Z,99724.47
2022-08-05T19:15:56.788Z,99727.22
2022-08-05T19:18:10.193Z,99725.06
2022-08-05T19:20:41.841Z,99718.25
2022-08-05T19:24:04.208Z,99724.47
2022-08-05T19:26:02.223Z,99729.47
2022-08-05T19:28:31.042Z,99722.19
2022-08-05T19:31:01.152Z,99725.28
2022-08-05T19:33:35.993Z,99718.53
2022-08-05T19:36:07.131Z,99718.47
2022-08-05T19:38:36.358Z,99723.63
2022-08-05T19:41:07.303Z,99723.75
2022-08-05T19:46:29.171Z,99721.72
2022-08-05T19:49:02.060Z,99721.91
2022-08-05T19:52:05.861Z,99725.91
2022-08-05T19:54:26.938Z,99730.16
2022-08-05T19:56:58.962Z,99727.72
2022-08-05T19:59:53.995Z,99726.72
2022-08-05T20:02:17.687Z,99725.34
2022-08-05T20:04:46.068Z,99725.72
2022-08-05T20:07:13.753Z,99718.78
2022-08-05T20:09:54.788Z,99716.03
2022-08-05T20:12:24.590Z,99714.72
2022-08-05T20:14:59.552Z,99711.91
2022-08-05T20:17:26.382Z,99707.00
2022-08-05T20:19:57.073Z,99711.50
2022-08-05T20:22:27.273Z,99713.25
2022-08-05T20:24:54.931Z,99710.06
2022-08-05T20:27:26.820Z,99711.09
2022-08-05T20:29:57.771Z,99713.78
2022-08-05T20:32:26.122Z,99702.16
2022-08-05T20:34:53.155Z,99712.47
2022-08-05T20:38:04.658Z,99708.50
2022-08-05T20:40:10.217Z,99706.16
2022-08-05T20:42:37.703Z,99701.97
2022-08-05T20:45:06.585Z,99698.13
2022-08-05T20:47:33.495Z,99699.66
2022-08-05T20:50:11.416Z,99700.38
2022-08-05T20:52:39.403Z,99706.47
2022-08-05T20:55:54.881Z,99702.91
2022-08-05T20:57:56.004Z,99704.06
2022-08-05T21:00:49.728Z,99701.59
2022-08-05T21:03:16.838Z,99690.09
2022-08-05T21:05:53.752Z,99698.75
2022-08-05T21:08:35.870Z,99693.94
2022-08-05T21:11:51.649Z,99694.47
2022-08-05T21:14:00.644Z,99686.53
2022-08-05T21:16:38.492Z,99686.09
2022-08-05T21:19:05.776Z,99690.56
2022-08-05T21:21:39.716Z,99693.91
2022-08-05T21:24:12.533Z,99695.06
2022-08-05T21:26:41.332Z,99695.25
2022-08-05T21:29:09.978Z,99699.31
2022-08-05T21:31:41.466Z,99699.63
2022-08-05T21:34:10.583Z,99695.25
2022-08-05T21:36:38.005Z,99693.53
2022-08-05T21:39:05.005Z,99693.53
2022-08-05T21:41:35.702Z,99694.13
2022-08-05T21:44:05.391Z,99691.97
2022-08-05T21:46:34.426Z,99696.88
2022-08-05T21:49:03.037Z,99696.06
2022-08-05T21:52:22.459Z,99697.47
2022-08-05T21:54:28.126Z,99692.78
2022-08-05T21:57:29.644Z,99690.97
2022-08-05T22:00:02.035Z,99703.59
2022-08-05T22:02:39.824Z,99700.22
2022-08-05T22:05:09.225Z,99694.22
2022-08-05T22:07:39.864Z,99698.38
2022-08-05T22:10:27.105Z,99702.25
2022-08-05T22:12:59.073Z,99697.91
2022-08-05T22:16:01.396Z,99694.94
2022-08-05T22:18:25.721Z,99700.13
2022-08-05T22:20:52.857Z,99699.09
2022-08-05T22:24:00.926Z,99697.47
2022-08-05T22:26:49.921Z,99694.22
2022-08-05T22:29:17.654Z,99698.00
2022-08-05T22:31:45.928Z,99690.25
2022-08-05T22:34:28.237Z,99691.97
2022-08-05T22:36:56.687Z,99695.63
2022-08-05T22:39:29.794Z,99697.66
2022-08-05T22:42:09.233Z,99701.31
2022-08-05T22:44:38.999Z,99699.28
2022-08-05T22:47:06.676Z,99699.84
2022-08-05T22:50:20.400Z,99696.69
2022-08-05T22:52:32.237Z,99697.81
2022-08-05T22:55:01.757Z,99695.75
2022-08-05T22:57:36.187Z,99696.72
2022-08-05T23:00:11.349Z,99691.31
2022-08-05T23:02:46.853Z,99691.56
2022-08-05T23:05:14.868Z,99690.78
2022-08-05T23:07:45.260Z,99699.41
2022-08-05T23:10:19.533Z,99699.69
2022-08-05T23:12:47.611Z,99697.22
2022-08-05T23:15:18.874Z,99702.00
2022-08-05T23:18:01.435Z,99698.22
2022-08-05T23:20:30.158Z,99695.56
2022-08-05T23:22:58.561Z,99705.63
2022-08-05T23:25:52.099Z,99698.81
2022-08-05T23:28:12.722Z,99707.34
2022-08-05T23:30:43.455Z,99706.31
2022-08-05T23:33:16.008Z,99711.59
2022-08-05T23:35:49.195Z,99713.28
2022-08-05T23:38:18.986Z,99709.19
2022-08-05T23:40:50.147Z,99707.59
2022-08-05T23:43:25.648Z,99710.31
2022-08-05T23:46:20.185Z,99715.00
2022-08-05T23:49:00.346Z,99711.13
2022-08-05T23:51:52.485Z,99711.72
2022-08-05T23:54:29.992Z,99713.63
2022-08-05T23:57:03.742Z,99705.94
2022-08-05T23:59:37.604Z,99712.63
